Time;durP1;ratioP1;P1;durP2;ratioP2;P2;SDS_P1;SDS_P2;PMS_P1;PMS_P2;Temp;Humidity;BMP_temperature;BMP_pressure;BME280_temperature;BME280_humidity;BME280_pressure;Samples;Min_cycle;Max_cycle;Signal;HPM_P1;HPM_P2
2021/12/22 00:01:14;;;;;;;;;;;;;;;10.98;52.47;101862.00;4976821;28;117434;-59
2021/12/22 00:03:45;;;;;;;;;;;;;;;10.97;52.18;101866.59;4964192;28;129075;-68
2021/12/22 00:06:13;;;;;;;;;;;;;;;10.98;52.26;101862.84;4966200;28;98211;-59
2021/12/22 00:08:39;;;;;;;;;;;;;;;10.98;51.82;101862.84;4962589;28;97748;-68
2021/12/22 00:11:05;;;;;;;;;;;;;;;10.98;51.79;101862.84;4965072;28;97940;-59
2021/12/22 00:13:31;;;;;;;;;;;;;;;10.96;51.64;101862.22;4965782;28;126750;-59
2021/12/22 00:15:57;;;;;;;;;;;;;;;10.98;52.20;101865.53;4965624;28;118773;-69
2021/12/22 00:18:23;;;;;;;;;;;;;;;10.97;51.79;101860.38;4965051;28;117903;-59
2021/12/22 00:20:49;;;;;;;;;;;;;;;10.97;52.03;101861.19;4967271;28;117666;-59
2021/12/22 00:23:15;;;;;;;;;;;;;;;10.97;51.89;101861.19;4979479;28;98614;-59
2021/12/22 00:25:41;;;;;;;;;;;;;;;10.97;51.73;101860.38;4965513;28;98743;-59
2021/12/22 00:28:07;;;;;;;;;;;;;;;10.96;51.71;101859.53;4965769;28;98294;-68
2021/12/22 00:30:33;;;;;;;;;;;;;;;10.97;51.72;101865.78;4967643;28;97860;-59
2021/12/22 00:33:04;;;;;;;;;;;;;;;10.96;51.78;101864.94;4965478;28;97676;-68
2021/12/22 00:35:38;;;;;;;;;;;;;;;10.97;52.10;101863.91;4966060;28;98153;-59
2021/12/22 00:38:07;;;;;;;;;;;;;;;10.96;51.95;101861.41;4965049;28;97913;-67
2021/12/22 00:40:33;;;;;;;;;;;;;;;10.95;52.13;101860.59;4963751;28;110400;-59
2021/12/22 00:42:59;;;;;;;;;;;;;;;10.95;51.72;101857.09;4965652;28;98570;-68
2021/12/22 00:45:27;;;;;;;;;;;;;;;10.95;52.24;101863.28;4966090;28;98819;-59
2021/12/22 00:47:54;;;;;;;;;;;;;;;10.95;52.08;101874.09;4969879;28;98050;-68
2021/12/22 00:50:20;;;;;;;;;;;;;;;10.95;51.72;101870.56;4966571;28;98032;-68
2021/12/22 00:52:46;;;;;;;;;;;;;;;10.94;51.85;101874.34;4964920;28;127670;-68
2021/12/22 00:55:17;;;;;;;;;;;;;;;10.93;52.06;101860.03;4965062;28;128348;-68
2021/12/22 00:57:43;;;;;;;;;;;;;;;10.93;52.08;101862.72;4979709;28;98100;-67
2021/12/22 01:00:09;;;;;;;;;;;;;;;10.93;51.90;101865.44;4983910;27;117065;-67
2021/12/22 01:02:35;;;;;;;;;;;;;;;10.93;52.15;101860.03;4984537;28;98427;-67
2021/12/22 01:05:01;;;;;;;;;;;;;;;10.92;51.86;101871.84;4985459;27;98997;-68
2021/12/22 01:07:26;;;;;;;;;;;;;;;10.92;52.09;101873.75;4983616;28;127651;-68
2021/12/22 01:09:52;;;;;;;;;;;;;;;10.92;52.16;101871.84;4985072;27;117873;-67
2021/12/22 01:12:18;;;;;;;;;;;;;;;10.91;51.48;101869.41;4983546;28;128131;-68
2021/12/22 01:14:45;;;;;;;;;;;;;;;10.90;51.57;101873.97;4950602;28;99493;-68
2021/12/22 01:17:13;;;;;;;;;;;;;;;10.89;51.95;101877.75;4983842;28;97830;-68
2021/12/22 01:20:06;;;;;;;;;;;;;;;10.90;51.80;101886.66;4955199;28;97828;-68
2021/12/22 01:25:02;;;;;;;;;;;;;;;10.88;51.80;101883.34;4963479;28;98247;-67
2021/12/22 01:27:33;;;;;;;;;;;;;;;10.88;51.47;101880.66;4966686;28;98436;-59
2021/12/22 01:30:00;;;;;;;;;;;;;;;10.85;51.57;101878.47;4984984;27;98124;-59
2021/12/22 01:32:26;;;;;;;;;;;;;;;10.86;51.79;101888.19;4984550;27;99165;-67
2021/12/22 01:34:52;;;;;;;;;;;;;;;10.86;51.48;101886.31;4973072;27;98634;-67
2021/12/22 01:37:18;;;;;;;;;;;;;;;10.84;51.88;101885.69;4963152;28;127804;-59
2021/12/22 01:39:44;;;;;;;;;;;;;;;10.85;52.13;101884.66;4964517;28;116784;-68
2021/12/22 01:42:10;;;;;;;;;;;;;;;10.85;52.16;101884.66;4961599;28;127118;-67
2021/12/22 01:50:37;;;;;;;;;;;;;;;10.82;52.16;101879.75;4965967;28;97937;-59
2021/12/22 01:53:06;;;;;;;;;;;;;;;10.82;51.94;101883.25;4962474;28;98062;-59
2021/12/22 01:55:36;;;;;;;;;;;;;;;10.83;52.08;101886.75;4964485;28;113080;-68
2021/12/22 01:58:02;;;;;;;;;;;;;;;10.84;51.75;101887.59;4995655;27;99196;-59
2021/12/22 02:00:28;;;;;;;;;;;;;;;10.81;52.04;101886.19;4965493;28;98012;-67
2021/12/22 02:02:55;;;;;;;;;;;;;;;10.82;51.69;101877.03;4964102;28;97844;-59
2021/12/22 02:05:21;;;;;;;;;;;;;;;10.83;51.63;101881.38;4963883;28;98528;-59
2021/12/22 02:07:49;;;;;;;;;;;;;;;10.82;51.83;101877.84;4969173;28;99716;-68
2021/12/22 02:10:33;;;;;;;;;;;;;;;10.82;51.38;101877.03;4984728;27;97819;-58
2021/12/22 02:13:00;;;;;;;;;;;;;;;10.81;51.59;101868.13;4984277;27;98562;-59
2021/12/22 02:15:29;;;;;;;;;;;;;;;10.80;51.49;101873.75;4965332;27;97758;-68
2021/12/22 02:17:57;;;;;;;;;;;;;;;10.81;51.97;101872.72;4969188;28;98262;-68
2021/12/22 02:20:23;;;;;;;;;;;;;;;10.80;52.05;101877.25;4966487;27;97895;-68
2021/12/22 02:22:53;;;;;;;;;;;;;;;10.80;51.68;101876.44;4970933;28;125939;-68
2021/12/22 02:25:29;;;;;;;;;;;;;;;10.80;52.00;101881.84;4959290;28;109880;-59
2021/12/22 02:27:55;;;;;;;;;;;;;;;10.79;51.40;101880.19;4963937;28;97944;-68
2021/12/22 02:30:27;;;;;;;;;;;;;;;10.79;52.05;101880.19;4965763;28;97728;-59
2021/12/22 02:35:42;;;;;;;;;;;;;;;10.78;51.70;101876.69;4981107;28;98168;-68
2021/12/22 02:38:14;;;;;;;;;;;;;;;10.79;51.87;101877.50;4969209;28;99339;-58
2021/12/22 02:40:41;;;;;;;;;;;;;;;10.77;51.59;101871.53;4965919;28;97836;-68
2021/12/22 02:43:06;;;;;;;;;;;;;;;10.77;52.06;101876.94;4966320;28;98787;-59
2021/12/22 02:45:37;;;;;;;;;;;;;;;10.76;51.84;101876.09;4968505;28;128743;-59
2021/12/22 02:48:04;;;;;;;;;;;;;;;10.76;51.96;101886.88;4962115;28;99337;-59
2021/12/22 02:50:30;;;;;;;;;;;;;;;10.75;51.93;101882.53;4985049;27;98067;-59
2021/12/22 02:53:05;;;;;;;;;;;;;;;10.75;51.69;101879.84;4986933;28;98223;-67
2021/12/22 02:55:44;;;;;;;;;;;;;;;10.74;52.01;101880.91;4967454;28;99932;-59
2021/12/22 02:58:16;;;;;;;;;;;;;;;10.74;52.08;101891.69;4988987;27;97658;-59
2021/12/22 03:01:01;;;;;;;;;;;;;;;10.74;52.04;101896.28;4987844;27;97998;-58
2021/12/22 03:03:47;;;;;;;;;;;;;;;10.73;51.49;101891.94;4987207;27;98639;-59
2021/12/22 03:06:18;;;;;;;;;;;;;;;10.72;51.26;101899.19;4987140;28;98563;-68
2021/12/22 03:08:44;;;;;;;;;;;;;;;10.72;51.94;101890.28;4982932;27;98418;-59
2021/12/22 03:11:10;;;;;;;;;;;;;;;10.71;51.54;101897.53;4969728;28;116965;-59
2021/12/22 03:13:36;;;;;;;;;;;;;;;10.71;51.45;101886.75;4966376;28;127476;-68
2021/12/22 03:16:02;;;;;;;;;;;;;;;10.70;51.40;101890.53;4966082;28;128631;-67
2021/12/22 03:18:28;;;;;;;;;;;;;;;10.69;52.06;101894.28;4967471;28;97670;-59
2021/12/22 03:21:03;;;;;;;;;;;;;;;10.68;51.96;101887.22;4965959;28;116362;-59
2021/12/22 03:23:29;;;;;;;;;;;;;;;10.68;51.91;101886.41;4965501;28;98703;-59
2021/12/22 03:25:57;;;;;;;;;;;;;;;10.66;51.80;101886.66;4967590;28;98357;-68
2021/12/22 03:28:23;;;;;;;;;;;;;;;10.66;51.50;101885.84;4980271;28;98139;-68
2021/12/22 03:30:49;;;;;;;;;;;;;;;10.66;51.48;101896.63;4965433;28;112528;-59
2021/12/22 03:33:15;;;;;;;;;;;;;;;10.66;51.67;101893.94;4965475;28;98808;-59
2021/12/22 03:35:41;;;;;;;;;;;;;;;10.65;51.85;101889.56;4965614;28;98609;-59
2021/12/22 03:38:07;;;;;;;;;;;;;;;10.65;51.56;101897.66;4973504;28;128384;-59
2021/12/22 03:40:33;;;;;;;;;;;;;;;10.64;52.09;101899.53;4985356;27;119110;-59
2021/12/22 03:42:59;;;;;;;;;;;;;;;10.63;51.68;101892.50;4986173;27;127870;-68
2021/12/22 03:45:25;;;;;;;;;;;;;;;10.64;52.05;101893.31;4984584;27;127418;-68
2021/12/22 03:47:51;;;;;;;;;;;;;;;10.63;51.83;101886.28;4967481;28;128019;-68
2021/12/22 03:50:17;;;;;;;;;;;;;;;10.64;52.06;101890.63;4970333;27;116664;-59
2021/12/22 03:52:43;;;;;;;;;;;;;;;10.63;51.15;101897.91;4966623;28;98418;-59
2021/12/22 03:55:09;;;;;;;;;;;;;;;10.63;51.48;101894.38;4965500;28;102350;-59
2021/12/22 03:57:35;;;;;;;;;;;;;;;10.63;51.51;101902.47;4967109;28;103258;-59
2021/12/22 04:00:02;;;;;;;;;;;;;;;10.63;51.69;101883.59;4966186;28;107545;-59
2021/12/22 04:02:29;;;;;;;;;;;;;;;10.62;51.67;101888.16;4979765;28;98845;-58
2021/12/22 04:04:55;;;;;;;;;;;;;;;10.62;51.94;101884.66;4965380;28;98410;-67
2021/12/22 04:07:21;;;;;;;;;;;;;;;10.61;51.46;101880.28;4983491;28;98167;-67
2021/12/22 04:09:47;;;;;;;;;;;;;;;10.62;51.70;101881.97;4984538;28;117455;-68
2021/12/22 04:12:13;;;;;;;;;;;;;;;10.59;51.73;101874.34;4986451;27;126031;-68
2021/12/22 04:14:38;;;;;;;;;;;;;;;10.59;51.98;101875.16;4986867;27;128791;-68
2021/12/22 04:17:04;;;;;;;;;;;;;;;10.56;51.47;101876.41;4982552;28;127910;-60
2021/12/22 04:19:35;;;;;;;;;;;;;;;10.56;51.89;101881.81;4979876;27;117514;-68
2021/12/22 04:22:02;;;;;;;;;;;;;;;10.55;51.83;101871.28;4967560;28;98480;-59
2021/12/22 04:24:28;;;;;;;;;;;;;;;10.53;51.67;101879.63;4983123;27;98319;-68
2021/12/22 04:26:54;;;;;;;;;;;;;;;10.50;51.83;101873.84;4984072;28;98195;-68
2021/12/22 04:29:20;;;;;;;;;;;;;;;10.50;51.85;101873.84;4968524;27;98135;-68
2021/12/22 04:31:46;;;;;;;;;;;;;;;10.47;51.35;101875.13;4984823;28;97919;-59
2021/12/22 04:34:12;;;;;;;;;;;;;;;10.45;51.89;101874.56;4980293;28;128034;-59
2021/12/22 04:36:39;;;;;;;;;;;;;;;10.44;51.62;101869.38;4984017;28;126886;-68
2021/12/22 04:39:05;;;;;;;;;;;;;;;10.42;51.49;101868.81;4985261;27;106429;-59
2021/12/22 04:41:31;;;;;;;;;;;;;;;10.39;51.50;101866.56;4984957;27;98241;-68
2021/12/22 04:43:57;;;;;;;;;;;;;;;10.37;52.32;101869.47;4984539;27;128109;-59
2021/12/22 04:46:23;;;;;;;;;;;;;;;10.36;51.88;101864.34;4985329;28;122363;-67
2021/12/22 04:48:49;;;;;;;;;;;;;;;10.34;51.54;101874.53;4972636;27;118617;-59
2021/12/22 04:51:25;;;;;;;;;;;;;;;10.32;51.25;101869.38;4980393;28;99333;-68
2021/12/22 04:54:14;;;;;;;;;;;;;;;10.30;51.69;101869.59;4965086;28;98399;-59
2021/12/22 04:56:40;;;;;;;;;;;;;;;10.29;51.56;101880.59;4966129;28;97917;-59
2021/12/22 04:59:06;;;;;;;;;;;;;;;10.27;52.26;101886.22;4966670;28;97963;-60
2021/12/22 05:01:32;;;;;;;;;;;;;;;10.26;51.63;101886.47;4969405;28;127716;-68
2021/12/22 05:03:58;;;;;;;;;;;;;;;10.26;51.47;101886.47;4986087;27;108404;-68
2021/12/22 05:06:24;;;;;;;;;;;;;;;10.24;51.51;101885.84;4983009;28;108794;-67
2021/12/22 05:08:51;;;;;;;;;;;;;;;10.23;51.87;101889.59;4982198;27;98976;-59
2021/12/22 05:11:17;;;;;;;;;;;;;;;10.21;51.75;101889.81;4981888;28;106130;-67
2021/12/22 05:13:42;;;;;;;;;;;;;;;10.19;52.30;101888.41;4984216;28;116593;-68
2021/12/22 05:16:16;;;;;;;;;;;;;;;10.19;51.83;101891.94;4983941;28;127880;-68
2021/12/22 05:18:56;;;;;;;;;;;;;;;10.18;51.52;101892.13;4984881;27;98000;-59
2021/12/22 05:21:22;;;;;;;;;;;;;;;10.17;51.40;101895.88;4962315;28;98098;-58
2021/12/22 05:23:49;;;;;;;;;;;;;;;10.16;51.17;101892.38;4977149;27;98907;-68
2021/12/22 05:26:15;;;;;;;;;;;;;;;10.15;51.99;101890.75;4984498;27;98580;-58
2021/12/22 05:28:41;;;;;;;;;;;;;;;10.14;50.91;101893.66;4985783;27;113840;-59
2021/12/22 05:31:07;;;;;;;;;;;;;;;10.13;51.45;101895.53;4967449;28;128565;-68
2021/12/22 05:33:33;;;;;;;;;;;;;;;10.11;52.17;101888.75;4968065;28;98493;-67
2021/12/22 05:35:59;;;;;;;;;;;;;;;10.11;51.18;101886.06;4967772;28;121952;-68
2021/12/22 05:38:25;;;;;;;;;;;;;;;10.07;51.67;101883.81;4981484;28;116880;-68
2021/12/22 05:40:51;;;;;;;;;;;;;;;10.07;51.70;101880.28;4967911;28;105628;-66
2021/12/22 05:43:16;;;;;;;;;;;;;;;10.07;51.67;101877.59;4980683;28;127835;-68
2021/12/22 05:45:42;;;;;;;;;;;;;;;10.03;51.37;101874.53;4967598;28;128368;-68
2021/12/22 05:48:08;;;;;;;;;;;;;;;10.03;51.47;101868.34;4974599;28;97823;-67
2021/12/22 05:50:34;;;;;;;;;;;;;;;10.00;51.30;101872.31;4975151;28;126820;-68
2021/12/22 05:53:00;;;;;;;;;;;;;;;10.00;51.66;101874.19;4967264;28;99062;-68
2021/12/22 05:55:26;;;;;;;;;;;;;;;9.99;51.24;101867.16;4974723;28;98286;-68
2021/12/22 05:57:53;;;;;;;;;;;;;;;9.97;51.30;101870.06;4987506;28;98275;-68
2021/12/22 06:00:19;;;;;;;;;;;;;;;9.97;51.28;101877.31;4986965;27;99062;-67
2021/12/22 06:02:44;;;;;;;;;;;;;;;9.94;51.64;101878.63;4988726;28;126419;-68
2021/12/22 06:05:11;;;;;;;;;;;;;;;9.95;51.11;101879.44;4987050;28;126303;-67
2021/12/22 06:07:37;;;;;;;;;;;;;;;9.94;51.67;101877.78;4986528;28;102053;-67
2021/12/22 06:10:04;;;;;;;;;;;;;;;9.91;50.73;101876.38;4984630;28;99253;-68
2021/12/22 06:12:30;;;;;;;;;;;;;;;9.90;50.86;101873.91;4986568;28;99574;-67
2021/12/22 06:14:56;;;;;;;;;;;;;;;9.89;51.37;101872.25;4978239;27;98129;-67
2021/12/22 06:17:22;;;;;;;;;;;;;;;9.88;51.28;101876.81;4968773;28;97743;-68
2021/12/22 06:19:48;;;;;;;;;;;;;;;9.87;51.69;101877.06;4965909;28;117298;-67
2021/12/22 06:22:14;;;;;;;;;;;;;;;9.86;51.80;101878.91;4967078;28;97984;-68
2021/12/22 06:24:40;;;;;;;;;;;;;;;9.84;50.81;101883.72;4966726;28;98004;-68
2021/12/22 06:27:06;;;;;;;;;;;;;;;9.82;51.39;101883.97;4978251;28;115721;-67
2021/12/22 06:29:31;;;;;;;;;;;;;;;9.82;50.86;101888.50;4979655;28;127032;-68
2021/12/22 06:31:57;;;;;;;;;;;;;;;9.80;51.97;101888.75;4966306;28;128484;-68
2021/12/22 06:34:23;;;;;;;;;;;;;;;9.80;51.53;101890.63;4966027;28;127893;-68
2021/12/22 06:36:49;;;;;;;;;;;;;;;9.78;51.25;101890.00;4967189;28;117970;-68
2021/12/22 06:39:16;;;;;;;;;;;;;;;9.77;51.34;101888.38;4965373;28;127916;-68
2021/12/22 06:41:42;;;;;;;;;;;;;;;9.76;51.04;101898.31;5000110;27;98527;-68
2021/12/22 06:44:08;;;;;;;;;;;;;;;9.74;51.33;101892.31;4964758;28;127822;-68
2021/12/22 06:46:33;;;;;;;;;;;;;;;9.73;51.31;101895.25;4968606;28;97887;-68
2021/12/22 06:48:59;;;;;;;;;;;;;;;9.72;51.18;101899.81;4977456;28;123423;-68
2021/12/22 06:51:25;;;;;;;;;;;;;;;9.70;51.59;101899.22;4986169;28;126400;-67
2021/12/22 06:53:51;;;;;;;;;;;;;;;9.70;51.11;101896.53;4982588;28;127928;-66
2021/12/22 06:56:17;;;;;;;;;;;;;;;9.69;51.07;101911.03;4964471;28;97862;-67
2021/12/22 06:58:43;;;;;;;;;;;;;;;9.67;51.02;101902.38;4962399;28;127676;-59
2021/12/22 07:01:16;;;;;;;;;;;;;;;9.68;51.25;101908.59;4976571;28;127850;-58
2021/12/22 07:03:42;;;;;;;;;;;;;;;9.67;50.81;101905.06;4976411;28;97941;-58
2021/12/22 07:06:08;;;;;;;;;;;;;;;9.66;51.42;101903.41;4959429;28;118519;-68
2021/12/22 07:08:34;;;;;;;;;;;;;;;9.66;50.64;101905.28;4958406;28;127288;-68
2021/12/22 07:10:59;;;;;;;;;;;;;;;9.65;50.95;101899.09;4959718;28;126205;-68
2021/12/22 07:13:25;;;;;;;;;;;;;;;9.65;50.99;101900.97;4957358;28;128077;-59
2021/12/22 07:15:51;;;;;;;;;;;;;;;9.65;50.57;101899.09;4963915;28;97823;-59
2021/12/22 07:18:17;;;;;;;;;;;;;;;9.65;50.84;101904.47;4959812;28;127041;-59
2021/12/22 07:20:43;;;;;;;;;;;;;;;9.65;50.87;101907.16;4963278;28;98516;-59
2021/12/22 07:23:09;;;;;;;;;;;;;;;9.66;50.63;101910.66;4963035;28;127750;-67
2021/12/22 07:25:35;;;;;;;;;;;;;;;9.67;50.62;101910.47;4961041;28;110418;-59
2021/12/22 07:28:01;;;;;;;;;;;;;;;9.67;50.22;101904.22;4963597;28;126675;-68
2021/12/22 07:30:27;;;;;;;;;;;;;;;9.69;50.46;101912.91;4966563;28;98560;-59
2021/12/22 07:32:53;;;;;;;;;;;;;;;9.69;50.62;101904.84;4964231;27;128229;-59
2021/12/22 07:35:34;;;;;;;;;;;;;;;9.71;50.73;101900.06;4968095;28;98037;-59
2021/12/22 07:38:12;;;;;;;;;;;;;;;9.72;50.57;101909.78;4961853;28;118423;-59
2021/12/22 07:40:38;;;;;;;;;;;;;;;9.74;50.21;101910.34;4964336;28;98962;-68
2021/12/22 07:43:04;;;;;;;;;;;;;;;9.77;51.03;101905.34;4962994;28;127428;-68
2021/12/22 07:45:30;;;;;;;;;;;;;;;9.81;50.67;101900.34;4968984;28;116657;-68
2021/12/22 07:47:55;;;;;;;;;;;;;;;9.89;49.75;101905.41;4962472;28;129675;-59
2021/12/22 07:50:22;;;;;;;;;;;;;;;9.93;49.99;101909.28;4961360;28;126506;-68
2021/12/22 07:52:48;;;;;;;;;;;;;;;9.99;50.04;101912.94;4963199;28;115008;-67
2021/12/22 07:55:14;;;;;;;;;;;;;;;10.05;50.24;101909.31;4966059;28;117175;-69
2021/12/22 07:57:40;;;;;;;;;;;;;;;10.09;50.22;101908.63;4962643;28;128309;-68
2021/12/22 08:00:06;;;;;;;;;;;;;;;10.14;50.03;101915.22;4957567;28;125620;-58
2021/12/22 08:02:32;;;;;;;;;;;;;;;10.23;49.80;101916.53;4965319;28;120415;-68
2021/12/22 08:04:58;;;;;;;;;;;;;;;10.33;49.96;101916.81;4964858;28;117560;-59
2021/12/22 08:07:24;;;;;;;;;;;;;;;10.46;49.65;101907.72;4962190;28;127132;-59
2021/12/22 08:09:50;;;;;;;;;;;;;;;10.63;49.79;101914.06;4961211;28;128278;-68
2021/12/22 08:12:16;;;;;;;;;;;;;;;10.82;49.56;101910.22;4962400;28;128216;-59
2021/12/22 08:14:41;;;;;;;;;;;;;;;11.10;49.27;101907.88;4964282;28;104487;-60
2021/12/22 08:17:08;;;;;;;;;;;;;;;11.39;48.97;101908.78;4963572;28;99351;-69
2021/12/22 08:19:34;;;;;;;;;;;;;;;11.69;48.87;101909.41;4959461;28;123135;-68
2021/12/22 08:22:00;;;;;;;;;;;;;;;12.06;48.46;101919.03;4961940;28;98310;-59
2021/12/22 08:24:25;;;;;;;;;;;;;;;12.47;47.96;101916.00;4961817;28;117112;-60
2021/12/22 08:26:52;;;;;;;;;;;;;;;13.09;47.15;101908.84;4960812;28;128495;-68
2021/12/22 08:29:18;;;;;;;;;;;;;;;13.79;46.64;101899.16;4962234;28;122715;-60
2021/12/22 08:31:44;;;;;;;;;;;;;;;14.47;45.98;101903.09;4963116;28;98483;-60
2021/12/22 08:34:13;;;;;;;;;;;;;;;14.97;45.60;101897.25;4963075;28;102446;-60
2021/12/22 08:39:23;;;;;;;;;;;;;;;15.56;45.33;101900.78;4964188;28;98036;-60
2021/12/22 08:41:49;;;;;;;;;;;;;;;15.64;45.26;101903.81;4967823;28;97880;-68
2021/12/22 08:44:18;;;;;;;;;;;;;;;15.41;45.70;101905.09;4961106;28;97986;-60
2021/12/22 08:46:48;;;;;;;;;;;;;;;15.54;46.03;101905.69;4962675;28;98446;-60
2021/12/22 08:49:13;;;;;;;;;;;;;;;15.78;45.34;101906.06;4964241;28;99362;-60
2021/12/22 08:51:39;;;;;;;;;;;;;;;16.12;45.25;101901.78;4961011;28;121484;-60
2021/12/22 08:54:05;;;;;;;;;;;;;;;16.38;45.04;101907.25;4962318;28;118543;-60
2021/12/22 08:56:31;;;;;;;;;;;;;;;16.59;44.94;101906.19;4964110;28;98958;-69
2021/12/22 08:58:57;;;;;;;;;;;;;;;16.75;44.92;101900.75;4965752;28;128156;-69
2021/12/22 09:01:24;;;;;;;;;;;;;;;16.91;44.83;101895.00;4969594;28;112406;-68
2021/12/22 09:03:50;;;;;;;;;;;;;;;17.06;44.79;101887.91;4967101;28;97873;-68
2021/12/22 09:06:16;;;;;;;;;;;;;;;17.18;44.98;101893.84;4966164;28;98623;-69
2021/12/22 09:08:42;;;;;;;;;;;;;;;17.29;44.93;101889.16;4964931;28;120565;-69
2021/12/22 09:11:08;;;;;;;;;;;;;;;17.34;44.79;101894.63;4980754;28;109845;-69
2021/12/22 09:13:37;;;;;;;;;;;;;;;17.22;45.17;101900.38;4965362;28;109064;-69
2021/12/22 09:16:04;;;;;;;;;;;;;;;17.32;45.00;101902.25;4965671;28;98920;-69
2021/12/22 09:18:30;;;;;;;;;;;;;;;17.38;44.97;101895.69;4964885;28;98905;-68
2021/12/22 09:20:56;;;;;;;;;;;;;;;17.34;45.13;101900.06;4964076;28;127969;-69
2021/12/22 09:23:21;;;;;;;;;;;;;;;17.28;45.42;101901.16;4964583;28;117926;-69
2021/12/22 09:25:48;;;;;;;;;;;;;;;17.22;45.54;101900.38;4964141;28;128170;-69
2021/12/22 09:28:14;;;;;;;;;;;;;;;17.14;45.60;101893.59;4965762;28;108181;-69
2021/12/22 09:30:41;;;;;;;;;;;;;;;17.05;45.81;101892.50;4966581;28;98056;-69
2021/12/22 09:33:07;;;;;;;;;;;;;;;16.99;45.97;101892.81;4965012;28;97965;-69
2021/12/22 09:35:33;;;;;;;;;;;;;;;16.87;46.21;101891.19;4965641;28;99322;-68
2021/12/22 09:37:59;;;;;;;;;;;;;;;16.82;46.22;101885.78;4966164;28;98586;-69
2021/12/22 09:40:25;;;;;;;;;;;;;;;16.77;46.40;101884.94;4970646;28;127009;-69
2021/12/22 09:42:51;;;;;;;;;;;;;;;16.68;46.59;101892.81;4965691;28;117097;-69
2021/12/22 09:45:19;;;;;;;;;;;;;;;16.54;46.62;101889.81;4965751;27;123484;-68
2021/12/22 09:48:00;;;;;;;;;;;;;;;16.47;46.80;101891.22;4965070;28;98269;-69
2021/12/22 09:50:43;;;;;;;;;;;;;;;16.31;46.71;101880.31;4961905;28;98235;-69
2021/12/22 09:53:09;;;;;;;;;;;;;;;16.18;47.17;101884.38;4966085;28;97772;-69
2021/12/22 09:55:35;;;;;;;;;;;;;;;16.06;47.29;101883.81;4972368;28;121659;-69
2021/12/22 09:58:02;;;;;;;;;;;;;;;15.91;47.57;101878.34;4965393;28;127424;-68
2021/12/22 10:00:29;;;;;;;;;;;;;;;15.78;47.62;101876.16;4967081;28;110628;-68
2021/12/22 10:02:55;;;;;;;;;;;;;;;15.63;47.65;101877.72;4963755;28;99213;-69
2021/12/22 10:05:21;;;;;;;;;;;;;;;15.49;47.68;101867.63;4963574;28;110881;-68
2021/12/22 10:08:10;;;;;;;;;;;;;;;15.33;48.08;101869.47;4964173;28;125942;-68
2021/12/22 10:10:38;;;;;;;;;;;;;;;15.15;47.92;101855.25;4964942;28;98038;-68
2021/12/22 10:13:12;;;;;;;;;;;;;;;15.02;48.56;101855.75;4965399;28;98001;-68
2021/12/22 10:15:38;;;;;;;;;;;;;;;14.88;48.17;101860.81;4990392;27;98888;-68
2021/12/22 10:18:15;;;;;;;;;;;;;;;14.76;48.35;101857.47;4973995;28;99064;-68
2021/12/22 10:20:42;;;;;;;;;;;;;;;14.63;48.67;101857.94;4970563;28;112176;-68
2021/12/22 10:23:28;;;;;;;;;;;;;;;14.53;48.45;101855.97;4968507;28;98125;-68
2021/12/22 10:26:07;;;;;;;;;;;;;;;14.42;48.61;101856.91;4965115;28;107978;-68
2021/12/22 10:28:59;;;;;;;;;;;;;;;14.32;49.04;101851.44;4965310;28;98026;-68
2021/12/22 10:31:41;;;;;;;;;;;;;;;14.20;48.76;101851.59;4959082;28;97984;-68
2021/12/22 10:34:09;;;;;;;;;;;;;;;14.12;48.82;101844.75;4964919;28;98034;-69
2021/12/22 10:36:46;;;;;;;;;;;;;;;14.05;49.31;101843.34;4967536;28;121606;-68
2021/12/22 10:39:39;;;;;;;;;;;;;;;13.99;49.06;101839.78;4966785;28;97981;-68
2021/12/22 10:42:09;;;;;;;;;;;;;;;13.93;49.29;101847.03;4967014;28;127991;-68
2021/12/22 10:44:36;;;;;;;;;;;;;;;13.90;49.08;101839.41;4964314;28;97970;-68
2021/12/22 10:49:14;;;;;;;;;;;;;;;13.87;49.36;101833.66;4963607;28;102236;-68
2021/12/22 10:50:22;;;;;;;;;;;;;;;13.83;49.17;101838.78;4970120;27;97965;-68
2021/12/22 10:52:50;;;;;;;;;;;;;;;13.79;49.53;101834.94;4948256;28;98338;-67
2021/12/22 10:55:16;;;;;;;;;;;;;;;13.75;49.30;101828.41;4966338;28;98335;-68
2021/12/22 10:57:43;;;;;;;;;;;;;;;13.71;49.44;101824.56;4968406;28;98008;-68
2021/12/22 11:00:22;;;;;;;;;;;;;;;13.68;49.69;101827.81;4965111;28;115088;-67
2021/12/22 11:03:05;;;;;;;;;;;;;;;13.63;49.43;101822.31;4969726;28;98764;-67
2021/12/22 11:05:41;;;;;;;;;;;;;;;13.59;49.51;101822.00;4966852;28;98182;-68
2021/12/22 11:08:17;;;;;;;;;;;;;;;13.57;49.51;101828.75;4963512;28;102470;-59
2021/12/22 11:10:43;;;;;;;;;;;;;;;13.53;49.62;101822.22;4963494;28;97954;-59
2021/12/22 11:13:09;;;;;;;;;;;;;;;13.49;49.87;101821.91;4962760;28;97889;-67
2021/12/22 11:15:42;;;;;;;;;;;;;;;13.45;50.02;101818.06;4968587;27;106247;-59
2021/12/22 11:18:28;;;;;;;;;;;;;;;13.41;49.74;101817.75;4963784;28;99309;-59
2021/12/22 11:21:16;;;;;;;;;;;;;;;13.36;50.08;101817.72;4963450;28;99259;-59
2021/12/22 11:23:42;;;;;;;;;;;;;;;13.32;50.10;101816.53;4972003;27;98307;-64
2021/12/22 11:26:12;;;;;;;;;;;;;;;13.28;49.96;101812.72;4961820;28;113357;-59
2021/12/22 11:28:38;;;;;;;;;;;;;;;13.23;49.92;101802.66;4967497;28;98607;-67
2021/12/22 11:31:05;;;;;;;;;;;;;;;13.20;50.25;101805.84;4963167;28;99177;-67
2021/12/22 11:33:31;;;;;;;;;;;;;;;13.15;50.30;101804.94;4963132;28;97920;-59
2021/12/22 11:35:58;;;;;;;;;;;;;;;13.12;50.34;101794.63;4965033;28;97987;-67
2021/12/22 11:38:26;;;;;;;;;;;;;;;13.07;50.30;101799.97;4967290;28;98548;-59
2021/12/22 11:40:57;;;;;;;;;;;;;;;13.01;50.25;101793.69;4961898;27;98620;-59
2021/12/22 11:43:24;;;;;;;;;;;;;;;12.97;50.59;101797.97;4961789;28;98118;-58
2021/12/22 11:45:51;;;;;;;;;;;;;;;12.93;50.57;101794.94;4970093;28;97818;-66
2021/12/22 11:48:17;;;;;;;;;;;;;;;12.90;50.34;101794.63;4963551;28;98893;-60
2021/12/22 11:50:46;;;;;;;;;;;;;;;12.86;50.35;101786.19;4961384;28;97935;-59
2021/12/22 11:53:12;;;;;;;;;;;;;;;12.82;50.35;101786.94;4960325;28;104757;-59
2021/12/22 11:55:43;;;;;;;;;;;;;;;12.78;50.58;101798.25;4971507;28;98006;-59
2021/12/22 11:58:19;;;;;;;;;;;;;;;12.75;50.60;101789.81;4962435;28;122492;-67
2021/12/22 12:00:54;;;;;;;;;;;;;;;12.71;50.67;101791.41;4974092;28;99079;-67
2021/12/22 12:03:31;;;;;;;;;;;;;;;12.67;50.59;101788.38;4967475;28;98077;-67
2021/12/22 12:06:16;;;;;;;;;;;;;;;12.64;50.65;101782.63;4962530;28;97943;-58
2021/12/22 12:08:58;;;;;;;;;;;;;;;12.60;50.59;101779.59;4960313;28;98793;-59
2021/12/22 12:11:54;;;;;;;;;;;;;;;12.60;50.67;101781.50;4953963;28;98441;-66
2021/12/22 12:23:32;;;;;;;;;;;;;;;12.49;50.66;101770.50;4972779;28;98417;-67
2021/12/22 12:25:59;;;;;;;;;;;;;;;12.46;50.91;101770.22;4962420;28;97882;-59
2021/12/22 12:28:25;;;;;;;;;;;;;;;12.43;50.65;101766.13;4963362;28;98011;-59
2021/12/22 12:30:56;;;;;;;;;;;;;;;12.41;50.86;101768.25;4967163;28;98420;-59
2021/12/22 12:33:32;;;;;;;;;;;;;;;12.41;50.77;101767.44;4961104;28;125300;-67
2021/12/22 12:36:01;;;;;;;;;;;;;;;12.39;50.85;101767.69;4962277;28;98646;-58
2021/12/22 12:38:30;;;;;;;;;;;;;;;12.44;50.81;101761.53;4959979;28;97790;-59
2021/12/22 12:41:17;;;;;;;;;;;;;;;12.53;50.88;101760.03;4966234;28;99689;-58
2021/12/22 12:43:43;;;;;;;;;;;;;;;12.61;50.91;101764.19;4959431;28;98497;-58
2021/12/22 12:48:54;;;;;;;;;;;;;;;12.69;50.63;101759.19;4959676;28;97859;-58
2021/12/22 12:51:29;;;;;;;;;;;;;;;12.72;50.60;101755.97;4957535;28;124437;-58
2021/12/22 12:53:57;;;;;;;;;;;;;;;12.75;50.56;101757.34;4958601;28;98451;-58
2021/12/22 12:56:30;;;;;;;;;;;;;;;12.77;50.60;101757.91;4990409;27;98098;-59
2021/12/22 12:59:03;;;;;;;;;;;;;;;12.76;50.71;101757.09;4950970;28;113998;-58
2021/12/22 13:01:50;;;;;;;;;;;;;;;12.77;50.81;101747.09;4973474;28;98329;-58
2021/12/22 13:04:26;;;;;;;;;;;;;;;12.77;50.57;101747.09;4947931;28;98663;-58
2021/12/22 13:07:05;;;;;;;;;;;;;;;12.75;50.60;101747.34;4959934;28;97933;-58